Time;durP1;ratioP1;P1;durP2;ratioP2;P2;SDS_P1;SDS_P2;PMS_P1;PMS_P2;Temp;Humidity;BMP_temperature;BMP_pressure;BME280_temperature;BME280_humidity;BME280_pressure;Samples;Min_cycle;Max_cycle;Signal;HPM_P1;HPM_P2
2022/08/25 00:00:10;;;;;;;1.90;1.80;;;;;;;21.70;66.17;101552.97;5053539;28;20124;-83
2022/08/25 00:02:36;;;;;;;1.95;1.85;;;;;;;21.66;66.00;101546.16;5062280;28;20028;-83
2022/08/25 00:05:02;;;;;;;2.15;2.05;;;;;;;21.63;66.41;101552.44;5072088;28;20055;-83
2022/08/25 00:07:28;;;;;;;1.98;1.88;;;;;;;21.60;66.17;101548.16;5072602;28;20025;-84
2022/08/25 00:09:54;;;;;;;2.30;2.10;;;;;;;21.56;66.49;101546.56;5072776;28;20016;-84
2022/08/25 00:12:19;;;;;;;2.13;1.98;;;;;;;21.52;66.85;101550.31;5067360;28;20090;-83
2022/08/25 00:14:45;;;;;;;2.07;1.97;;;;;;;21.47;66.77;101546.19;5052933;28;20548;-83
2022/08/25 00:17:10;;;;;;;2.47;2.00;;;;;;;21.40;66.74;101546.50;5052031;28;20493;-84
2022/08/25 00:19:37;;;;;;;2.10;2.00;;;;;;;21.34;66.87;101552.09;5052294;28;20082;-83
2022/08/25 00:22:03;;;;;;;2.13;2.03;;;;;;;21.28;67.08;101549.72;5052775;28;20044;-83
2022/08/25 00:24:29;;;;;;;2.28;2.08;;;;;;;21.22;67.34;101550.88;5052594;28;20032;-84
2022/08/25 00:26:57;;;;;;;2.42;2.22;;;;;;;21.17;67.53;101549.44;5060112;28;20028;-84
2022/08/25 00:29:26;;;;;;;2.42;2.22;;;;;;;21.13;67.46;101552.22;5072692;28;20480;-83
2022/08/25 00:31:53;;;;;;;2.00;1.90;;;;;;;21.10;67.85;101546.25;5072290;28;20017;-83
2022/08/25 00:34:23;;;;;;;2.33;2.13;;;;;;;21.06;67.96;101548.16;5071445;28;20047;-84
2022/08/25 00:36:50;;;;;;;2.10;2.00;;;;;;;21.04;68.19;101550.03;5072832;28;20042;-83
2022/08/25 00:39:17;;;;;;;2.22;2.10;;;;;;;21.01;68.11;101547.53;5072613;28;20028;-83
2022/08/25 00:41:43;;;;;;;2.20;2.10;;;;;;;20.98;68.27;101548.53;5054932;28;20036;-83
2022/08/25 00:44:11;;;;;;;2.13;2.03;;;;;;;20.95;68.54;101551.31;5051888;28;20032;-83
2022/08/25 00:46:41;;;;;;;2.03;1.92;;;;;;;20.91;68.70;101552.38;5051794;28;20033;-83
2022/08/25 00:49:18;;;;;;;2.20;2.10;;;;;;;20.84;68.48;101548.34;5052239;28;20025;-83
2022/08/25 00:51:48;;;;;;;2.10;2.00;;;;;;;20.79;70.37;101551.19;5052109;28;20017;-83
2022/08/25 00:54:21;;;;;;;2.17;2.08;;;;;;;20.73;69.36;101546.16;5051869;28;20029;-83
2022/08/25 00:56:48;;;;;;;2.17;2.08;;;;;;;20.67;69.07;101542.03;5072505;28;20103;-83
2022/08/25 00:59:13;;;;;;;;;;;;;;;20.63;69.35;101547.53;5072825;28;20423;-84
2022/08/25 01:01:38;;;;;;;;;;;;;;;20.58;69.96;101549.53;5071781;28;19916;-83
2022/08/25 01:04:06;;;;;;;2.40;2.20;;;;;;;20.49;69.82;101543.75;5072286;28;19924;-83
2022/08/25 01:06:35;;;;;;;2.15;2.05;;;;;;;20.46;69.73;101549.19;5072302;28;20028;-83
2022/08/25 01:09:00;;;;;;;2.35;2.15;;;;;;;20.42;70.33;101544.13;5062476;28;20036;-83
2022/08/25 01:11:26;;;;;;;1.80;1.70;;;;;;;20.37;70.51;101544.31;5051926;28;20025;-84
2022/08/25 01:13:54;;;;;;;2.33;2.13;;;;;;;20.33;71.22;101545.38;5052234;28;20036;-84
2022/08/25 01:16:20;;;;;;;2.10;2.00;;;;;;;20.28;71.64;101540.31;5051432;28;20021;-83
2022/08/25 01:18:50;;;;;;;1.90;1.80;;;;;;;20.24;70.69;101548.44;5069512;28;20514;-83
2022/08/25 01:21:17;;;;;;;1.80;1.70;;;;;;;20.18;71.03;101542.50;5072187;28;20039;-83
2022/08/25 01:23:43;;;;;;;1.70;1.60;;;;;;;20.17;70.67;101540.78;5055697;28;20070;-84
2022/08/25 01:26:13;;;;;;;1.90;1.80;;;;;;;20.16;70.82;101546.13;5055683;28;20044;-84
2022/08/25 01:29:19;;;;;;;2.00;1.90;;;;;;;20.16;70.94;101546.13;5055636;28;20443;-83
2022/08/25 01:31:27;;;;;;;1.85;1.75;;;;;;;20.16;71.23;101544.34;5055606;28;20044;-84
2022/08/25 01:33:53;;;;;;;1.80;1.70;;;;;;;20.15;71.29;101549.69;5055196;28;20041;-83
2022/08/25 01:36:19;;;;;;;1.60;1.50;;;;;;;20.14;70.92;101540.06;5057900;28;20549;-84
2022/08/25 01:38:44;;;;;;;;;;;;;;;20.15;70.59;101550.53;5075921;28;20029;-83
2022/08/25 01:41:10;;;;;;;;;;;;;;;20.12;70.80;101545.44;5075584;28;19923;-83
2022/08/25 01:43:37;;;;;;;2.00;1.90;;;;;;;20.10;70.85;101544.63;5075226;28;20007;-84
2022/08/25 01:46:02;;;;;;;1.98;1.88;;;;;;;20.08;70.49;101546.47;5075026;28;20047;-83
2022/08/25 01:48:28;;;;;;;2.17;2.00;;;;;;;20.06;70.61;101545.69;5075656;28;20408;-84
2022/08/25 01:50:53;;;;;;;2.07;1.97;;;;;;;20.04;70.58;101548.41;5066588;28;20032;-84
2022/08/25 01:53:25;;;;;;;2.00;1.90;;;;;;;20.03;70.93;101545.84;5054992;28;20025;-84
2022/08/25 01:55:51;;;;;;;2.10;1.90;;;;;;;20.01;70.27;101545.03;5054972;28;20098;-84
2022/08/25 01:58:35;;;;;;;1.92;1.83;;;;;;;19.98;70.40;101540.78;5054622;28;20040;-84
2022/08/25 02:01:04;;;;;;;2.00;1.90;;;;;;;19.97;70.40;101540.81;5055837;28;20044;-84
2022/08/25 02:03:30;;;;;;;1.95;1.85;;;;;;;19.95;70.58;101543.53;5054983;28;20021;-83
2022/08/25 02:05:57;;;;;;;2.00;1.90;;;;;;;19.93;70.66;101540.09;5067515;28;20033;-83
2022/08/25 02:08:24;;;;;;;2.20;2.10;;;;;;;19.93;70.64;101544.53;5074768;28;20316;-84
2022/08/25 02:10:50;;;;;;;2.03;1.92;;;;;;;19.90;70.52;101541.09;5074854;28;20036;-83
2022/08/25 02:13:17;;;;;;;2.30;2.10;;;;;;;19.91;70.22;101541.94;5073826;28;20029;-84
2022/08/25 02:15:45;;;;;;;2.08;1.98;;;;;;;19.90;70.13;101541.09;5077573;22;20060;-83
2022/08/25 02:18:11;;;;;;;2.00;1.90;;;;;;;19.88;70.43;101537.69;5070070;28;20396;-84
2022/08/25 02:20:36;;;;;;;2.10;2.00;;;;;;;19.84;70.56;101538.69;5055015;28;20021;-84
2022/08/25 02:23:03;;;;;;;2.10;2.00;;;;;;;19.81;70.27;101537.97;5054621;28;20048;-84
2022/08/25 02:25:29;;;;;;;2.17;1.98;;;;;;;19.76;70.24;101541.66;5053917;28;20017;-84
2022/08/25 02:27:54;;;;;;;1.92;1.83;;;;;;;19.72;70.30;101542.72;5054404;28;20025;-84
2022/08/25 02:30:20;;;;;;;2.27;2.07;;;;;;;19.68;70.54;101535.84;5069415;28;20032;-84
2022/08/25 02:32:45;;;;;;;2.20;2.00;;;;;;;19.66;70.57;101542.97;5071678;28;20056;-84
2022/08/25 02:35:11;;;;;;;2.30;2.10;;;;;;;19.65;70.44;101541.25;5054218;28;20131;-84
2022/08/25 02:37:36;;;;;;;2.50;2.15;;;;;;;19.63;70.22;101536.97;5054644;28;20028;-84
2022/08/25 02:40:03;;;;;;;2.33;2.13;;;;;;;19.61;70.15;101531.78;5053040;28;20439;-84
2022/08/25 02:42:28;;;;;;;2.53;2.33;;;;;;;19.58;70.28;101534.53;5055748;28;20489;-83
2022/08/25 02:44:54;;;;;;;2.60;2.40;;;;;;;19.53;70.31;101529.47;5073767;28;20075;-84
2022/08/25 02:47:21;;;;;;;2.70;2.50;;;;;;;19.51;70.84;101533.09;5069852;28;20048;-84
2022/08/25 02:49:47;;;;;;;2.60;2.40;;;;;;;19.42;71.17;101529.91;5054386;28;20063;-84
2022/08/25 02:52:12;;;;;;;2.20;2.10;;;;;;;19.38;70.58;101528.34;5054031;28;20051;-84
2022/08/25 02:54:38;;;;;;;2.40;2.20;;;;;;;19.36;71.31;101527.53;5053411;28;20052;-84
2022/08/25 02:57:03;;;;;;;2.40;2.20;;;;;;;19.32;70.71;101523.31;5054979;28;20121;-84
2022/08/25 02:59:29;;;;;;;2.23;2.13;;;;;;;19.29;70.87;101519.03;5056645;28;20415;-84
2022/08/25 03:01:54;;;;;;;2.33;2.13;;;;;;;19.28;70.75;101519.13;5057413;28;20031;-83
2022/08/25 03:04:20;;;;;;;2.80;2.30;;;;;;;19.27;70.71;101517.41;5074337;28;20024;-83
2022/08/25 03:06:45;;;;;;;3.30;2.60;;;;;;;19.26;70.67;101513.06;5073949;28;20032;-83
2022/08/25 03:09:11;;;;;;;2.60;2.40;;;;;;;19.23;70.83;101521.94;5072847;28;20055;-84
2022/08/25 03:11:39;;;;;;;3.20;2.40;;;;;;;19.19;70.85;101516.88;5074061;28;20142;-84
2022/08/25 03:14:06;;;;;;;2.83;2.40;;;;;;;19.13;71.01;101512.72;5073404;28;20020;-84
2022/08/25 03:16:32;;;;;;;2.60;2.40;;;;;;;19.09;71.02;101514.59;5066420;28;20504;-84
2022/08/25 03:18:58;;;;;;;2.50;2.30;;;;;;;19.05;71.86;101515.66;5053790;28;20029;-84
2022/08/25 03:21:24;;;;;;;2.50;2.30;;;;;;;19.04;71.16;101507.81;5052810;28;20036;-84
2022/08/25 03:23:49;;;;;;;2.58;2.35;;;;;;;19.02;71.20;101507.88;5053637;28;20393;-84
2022/08/25 03:29:04;;;;;;;3.10;2.80;;;;;;;19.01;71.46;101505.31;5060792;28;20519;-83
2022/08/25 03:31:31;;;;;;;3.10;2.80;;;;;;;18.98;70.89;101499.25;5073969;28;20027;-84
2022/08/25 03:33:56;;;;;;;;;;;;;;;18.93;71.38;101493.31;5073209;28;20062;-84
2022/08/25 03:36:21;;;;;;;2.83;2.63;;;;;;;18.86;71.37;101489.19;5072772;28;19916;-83
2022/08/25 03:38:47;;;;;;;3.20;2.80;;;;;;;18.81;71.08;101494.63;5073381;28;20274;-83
2022/08/25 03:41:22;;;;;;;3.57;2.90;;;;;;;18.76;71.48;101499.22;5073081;28;20024;-84
2022/08/25 03:43:49;;;;;;;2.70;2.50;;;;;;;18.72;71.68;101496.75;5058861;28;20029;-83
2022/08/25 03:46:22;;;;;;;;;;;;;;;18.66;71.80;101493.47;5053748;28;20393;-84
2022/08/25 03:48:48;;;;;;;2.60;2.40;;;;;;;18.63;71.67;101485.69;5053088;28;19943;-83
2022/08/25 03:51:28;;;;;;;3.63;2.72;;;;;;;18.60;71.67;101485.81;5060190;28;20381;-84
2022/08/25 03:53:54;;;;;;;2.50;2.30;;;;;;;18.58;71.55;101484.16;5072835;28;20040;-84
2022/08/25 03:56:19;;;;;;;3.03;2.73;;;;;;;18.56;71.96;101481.59;5073305;28;20023;-84
2022/08/25 03:58:46;;;;;;;2.60;2.40;;;;;;;18.53;71.54;101477.31;5052780;28;20037;-84
2022/08/25 04:01:12;;;;;;;2.40;2.20;;;;;;;18.52;71.59;101480.00;5052559;28;20045;-84
2022/08/25 04:03:37;;;;;;;2.90;2.63;;;;;;;18.50;71.59;101480.06;5052372;28;20075;-84
2022/08/25 04:06:05;;;;;;;2.80;2.60;;;;;;;18.50;71.41;101476.56;5052431;28;20450;-84
2022/08/25 04:08:31;;;;;;;2.50;2.30;;;;;;;18.50;71.57;101472.19;5052664;28;20116;-83
2022/08/25 04:10:56;;;;;;;2.60;2.40;;;;;;;18.47;71.70;101477.56;5053559;28;20103;-84
2022/08/25 04:13:21;;;;;;;2.60;2.40;;;;;;;18.45;71.54;101470.66;5073029;28;20020;-84
2022/08/25 04:15:47;;;;;;;3.10;2.50;;;;;;;18.42;71.63;101470.75;5072758;28;20123;-84
2022/08/25 04:18:13;;;;;;;2.72;2.53;;;;;;;18.39;71.63;101476.13;5071558;28;20476;-84
2022/08/25 04:20:41;;;;;;;2.70;2.50;;;;;;;18.36;71.88;101475.31;5073444;28;20021;-84
2022/08/25 04:23:07;;;;;;;2.70;2.50;;;;;;;18.32;71.77;101473.75;5072520;28;20094;-83
2022/08/25 04:25:32;;;;;;;3.00;2.70;;;;;;;18.30;71.79;101474.69;5066192;28;20029;-83
2022/08/25 04:27:57;;;;;;;2.80;2.60;;;;;;;18.25;71.91;101468.78;5052412;28;20036;-83
2022/08/25 04:30:23;;;;;;;2.80;2.60;;;;;;;18.22;72.04;101477.63;5052685;28;20033;-83
2022/08/25 04:32:48;;;;;;;3.00;2.70;;;;;;;18.17;71.68;101472.56;5058091;28;20036;-83
2022/08/25 04:35:14;;;;;;;2.77;2.57;;;;;;;18.18;72.06;101470.78;5072411;28;20032;-83
2022/08/25 04:37:40;;;;;;;2.95;2.65;;;;;;;18.15;72.26;101468.25;5073196;28;20103;-84
2022/08/25 04:40:06;;;;;;;2.63;2.43;;;;;;;18.11;72.14;101464.88;5060806;28;20107;-83
2022/08/25 04:42:32;;;;;;;2.90;2.40;;;;;;;18.07;72.15;101463.28;5052381;28;20466;-84
2022/08/25 04:44:58;;;;;;;2.85;2.50;;;;;;;18.03;72.23;101459.91;5051871;28;20424;-84
2022/08/25 04:47:23;;;;;;;2.60;2.40;;;;;;;18.01;72.53;101455.63;5051901;28;20036;-83
2022/08/25 04:49:49;;;;;;;2.70;2.50;;;;;;;17.99;72.48;101455.69;5052345;28;20374;-83
2022/08/25 04:52:14;;;;;;;3.20;2.63;;;;;;;17.99;72.47;101454.81;5052224;28;20033;-83
2022/08/25 04:54:40;;;;;;;2.57;2.37;;;;;;;17.99;73.86;101457.47;5052433;28;20489;-83
2022/08/25 04:57:06;;;;;;;2.90;2.60;;;;;;;17.93;72.45;101458.50;5052268;28;20044;-83
2022/08/25 04:59:31;;;;;;;2.97;2.67;;;;;;;17.91;73.01;101453.31;5053334;28;20020;-84
2022/08/25 05:02:00;;;;;;;2.60;2.40;;;;;;;17.90;72.93;101456.00;5055123;28;20021;-84
2022/08/25 05:04:26;;;;;;;2.60;2.40;;;;;;;17.89;72.51;101454.28;5056651;28;20025;-83
2022/08/25 05:06:51;;;;;;;2.90;2.63;;;;;;;17.87;72.87;101445.63;5055660;28;20457;-83
2022/08/25 05:09:16;;;;;;;2.63;2.43;;;;;;;17.87;72.38;101454.34;5058247;28;20021;-84
2022/08/25 05:11:42;;;;;;;3.40;2.90;;;;;;;17.91;72.24;101463.81;5056067;28;20489;-83
2022/08/25 05:14:10;;;;;;;3.17;2.60;;;;;;;17.96;71.76;101463.66;5055370;28;20068;-94
2022/08/25 05:16:37;;;;;;;2.60;2.40;;;;;;;18.02;71.67;101466.06;5057357;28;20095;-89
2022/08/25 05:19:03;;;;;;;2.97;2.30;;;;;;;18.06;71.99;101466.84;5056807;28;20025;-89
2022/08/25 05:21:29;;;;;;;2.60;2.40;;;;;;;18.08;71.46;101474.66;5055886;28;20534;-90
2022/08/25 05:23:56;;;;;;;2.40;2.20;;;;;;;18.11;71.41;101483.28;5056847;28;20036;-89
2022/08/25 05:26:24;;;;;;;3.05;2.30;;;;;;;18.15;71.79;101484.88;5056736;28;20021;-90
2022/08/25 05:28:51;;;;;;;2.40;2.20;;;;;;;18.19;71.29;101498.75;5056264;28;20066;-90
2022/08/25 05:31:17;;;;;;;2.30;2.03;;;;;;;18.21;71.53;101487.28;5056459;28;20029;-90
2022/08/25 05:33:43;;;;;;;2.35;2.15;;;;;;;18.25;71.40;101488.00;5060697;28;20075;-89
2022/08/25 05:36:25;;;;;;;2.53;2.33;;;;;;;18.28;70.86;101493.16;5075900;28;20492;-91
2022/08/25 05:38:51;;;;;;;2.67;2.47;;;;;;;18.34;70.61;101492.06;5036162;28;20067;-90
2022/08/25 05:41:20;;;;;;;2.63;2.43;;;;;;;18.41;71.17;101485.66;5037097;28;20025;-90
2022/08/25 05:43:48;;;;;;;2.83;2.58;;;;;;;18.47;70.56;101487.19;5036147;28;20430;-90
2022/08/25 05:46:14;;;;;;;2.90;2.38;;;;;;;18.53;70.67;101486.97;5035380;28;20124;-82
2022/08/25 05:48:40;;;;;;;2.90;2.60;;;;;;;18.59;69.86;101494.59;5035176;28;20071;-82
2022/08/25 05:51:08;;;;;;;2.60;2.40;;;;;;;18.64;69.94;101497.94;5034428;28;20428;-81
2022/08/25 05:53:34;;;;;;;2.50;2.30;;;;;;;18.72;69.98;101496.75;5035781;28;20030;-79
2022/08/25 05:56:00;;;;;;;2.50;2.30;;;;;;;18.77;69.43;101506.19;5035102;28;20032;-86
2022/08/25 05:58:28;;;;;;;2.15;2.03;;;;;;;18.83;69.31;101503.31;5034754;28;20029;-84
2022/08/25 06:00:55;;;;;;;2.10;2.00;;;;;;;18.89;69.07;101501.34;5035206;28;20152;-82
2022/08/25 06:03:20;;;;;;;2.13;1.92;;;;;;;18.94;69.12;101499.44;5054562;28;20025;-82
2022/08/25 06:05:46;;;;;;;1.80;1.70;;;;;;;18.99;69.05;101505.34;5067039;28;20476;-83
2022/08/25 06:08:11;;;;;;;2.42;2.10;;;;;;;19.05;68.74;101507.75;5074982;28;20052;-83
2022/08/25 06:10:37;;;;;;;2.50;2.20;;;;;;;19.10;68.82;101510.19;5074172;28;20476;-83
2022/08/25 06:13:03;;;;;;;2.10;2.00;;;;;;;19.14;68.41;101507.38;5074811;28;20020;-83
2022/08/25 06:15:28;;;;;;;1.90;1.80;;;;;;;19.19;68.46;101504.56;5074402;28;20098;-83
2022/08/25 06:17:57;;;;;;;1.73;1.63;;;;;;;19.26;68.45;101506.00;5074014;28;20060;-83
2022/08/25 06:20:25;;;;;;;1.65;1.58;;;;;;;19.33;68.19;101503.97;5075284;28;20473;-83
2022/08/25 06:22:51;;;;;;;1.70;1.60;;;;;;;19.39;68.28;101505.50;5070096;28;20037;-84
2022/08/25 06:25:20;;;;;;;1.60;1.50;;;;;;;19.44;68.02;101501.75;5072100;28;20041;-84
2022/08/25 06:27:45;;;;;;;2.13;2.00;;;;;;;19.51;68.15;101501.50;5062966;28;20520;-84
2022/08/25 06:30:14;;;;;;;3.63;2.80;;;;;;;19.59;67.42;101502.03;5074479;28;20044;-83
2022/08/25 06:32:40;;;;;;;2.38;2.17;;;;;;;19.68;67.38;101508.69;5070531;28;20024;-80
2022/08/25 06:35:08;;;;;;;2.63;2.42;;;;;;;19.76;67.27;101507.41;5054505;28;20115;-82
2022/08/25 06:37:34;;;;;;;2.20;2.10;;;;;;;19.84;66.92;101509.72;5054716;28;20021;-82
2022/08/25 06:39:59;;;;;;;2.93;2.13;;;;;;;19.93;66.97;101510.28;5053613;28;20374;-82
2022/08/25 06:42:25;;;;;;;2.20;2.10;;;;;;;20.03;66.77;101511.59;5055623;28;20104;-81
2022/08/25 06:44:50;;;;;;;2.77;2.30;;;;;;;20.11;66.46;101508.59;5054399;28;20025;-82
2022/08/25 06:47:17;;;;;;;2.47;2.27;;;;;;;20.19;66.00;101507.31;5053863;28;20033;-82
2022/08/25 06:49:43;;;;;;;2.45;2.25;;;;;;;20.30;65.99;101511.25;5054515;28;20036;-81
2022/08/25 06:52:09;;;;;;;3.70;2.90;;;;;;;20.38;65.61;101503.84;5054058;28;20120;-83
2022/08/25 06:54:34;;;;;;;3.03;2.57;;;;;;;20.50;65.80;101513.81;5053632;28;20448;-82
2022/08/25 06:57:00;;;;;;;2.93;2.60;;;;;;;20.59;65.76;101507.25;5054028;28;20267;-83
2022/08/25 06:59:26;;;;;;;2.43;2.23;;;;;;;20.68;65.17;101503.34;5053490;28;20097;-83
2022/08/25 07:01:51;;;;;;;4.65;3.00;;;;;;;20.79;64.84;101505.47;5065318;28;20036;-80
2022/08/25 07:04:17;;;;;;;4.17;3.17;;;;;;;20.91;64.64;101504.91;5074448;28;20369;-86
2022/08/25 07:06:42;;;;;;;3.05;2.80;;;;;;;21.04;64.40;101497.25;5073914;28;20028;-84
2022/08/25 07:09:09;;;;;;;3.67;2.90;;;;;;;21.17;64.12;101501.94;5073313;28;20489;-84
2022/08/25 07:11:35;;;;;;;3.45;2.75;;;;;;;21.43;63.62;101501.47;5074058;28;20354;-85
2022/08/25 07:14:02;;;;;;;2.53;2.20;;;;;;;22.06;61.43;101496.50;5072805;28;20025;-86
2022/08/25 07:16:28;;;;;;;4.18;2.95;;;;;;;23.82;61.48;101487.44;5074365;28;20044;-86
2022/08/25 07:18:55;;;;;;;4.53;3.33;;;;;;;25.63;54.40;101497.09;5073545;28;20118;-86
2022/08/25 07:21:22;;;;;;;4.63;3.55;;;;;;;26.98;50.44;101490.19;5072769;28;20468;-85
2022/08/25 07:23:47;;;;;;;4.85;3.40;;;;;;;27.57;50.59;101491.13;5073466;28;20028;-85
2022/08/25 07:26:23;;;;;;;2.80;2.57;;;;;;;27.70;51.76;101485.66;5065128;28;20112;-82
2022/08/25 07:28:50;;;;;;;3.33;2.75;;;;;;;27.30;51.15;101492.25;5055063;28;20048;-82
2022/08/25 07:31:16;;;;;;;3.63;2.72;;;;;;;26.74;52.28;101495.50;5073623;28;20107;-83
2022/08/25 07:35:14;;;;;;;2.80;2.60;;;;;;;26.20;52.59;101494.94;5073351;28;20125;-82
2022/08/25 07:36:27;;;;;;;3.85;2.28;;;;;;;25.69;54.24;101495.81;5072453;28;20032;-83
2022/08/25 07:38:52;;;;;;;3.43;2.50;;;;;;;25.38;52.94;101490.78;5073065;28;20488;-83
2022/08/25 07:41:18;;;;;;;3.20;2.53;;;;;;;25.11;54.88;101483.72;5073329;28;20380;-82
2022/08/25 07:43:43;;;;;;;3.10;2.70;;;;;;;24.94;55.46;101481.34;5072876;28;20051;-83
2022/08/25 07:46:09;;;;;;;3.20;2.60;;;;;;;24.82;54.33;101481.19;5072590;28;20029;-82
2022/08/25 07:48:35;;;;;;;2.90;2.60;;;;;;;24.77;56.40;101480.63;5072638;28;20059;-82
2022/08/25 07:51:06;;;;;;;3.45;2.90;;;;;;;24.74;56.18;101483.50;5072939;28;20020;-82
2022/08/25 07:53:32;;;;;;;4.03;3.00;;;;;;;24.74;55.59;101482.66;5070845;28;20029;-83
2022/08/25 07:55:57;;;;;;;2.80;2.60;;;;;;;24.76;54.17;101478.09;5051903;28;20024;-83
2022/08/25 07:58:23;;;;;;;2.50;2.30;;;;;;;24.80;55.76;101474.28;5067881;28;20051;-83
2022/08/25 08:00:48;;;;;;;2.95;2.45;;;;;;;24.85;54.97;101479.28;5073245;28;20388;-83
2022/08/25 08:03:14;;;;;;;2.92;2.30;;;;;;;24.93;55.84;101472.53;5071857;28;20021;-82
2022/08/25 08:05:40;;;;;;;2.50;2.30;;;;;;;25.01;55.38;101479.13;5073011;28;20115;-82
2022/08/25 08:08:05;;;;;;;2.60;2.40;;;;;;;25.07;54.25;101471.59;5072745;28;20035;-82
2022/08/25 08:10:31;;;;;;;2.30;2.10;;;;;;;25.17;55.36;101471.81;5072171;28;20033;-82
2022/08/25 08:12:56;;;;;;;2.30;2.10;;;;;;;25.28;55.32;101469.28;5072017;28;20025;-83
2022/08/25 08:15:22;;;;;;;2.47;2.28;;;;;;;25.39;54.84;101476.53;5072738;28;20040;-82
2022/08/25 08:17:47;;;;;;;2.10;2.00;;;;;;;25.51;48.88;101476.69;5072218;28;20108;-83
2022/08/25 08:20:12;;;;;;;3.57;2.57;;;;;;;25.63;53.09;101467.00;5072605;28;20679;-82
2022/08/25 08:22:40;;;;;;;2.70;2.50;;;;;;;25.77;53.24;101471.38;5070580;28;20119;-82
2022/08/25 08:25:07;;;;;;;2.20;2.00;;;;;;;25.91;53.64;101465.91;5066556;28;20033;-83
2022/08/25 08:27:33;;;;;;;2.10;2.00;;;;;;;26.00;53.09;101465.28;5052868;28;20116;-83
2022/08/25 08:29:59;;;;;;;2.60;2.13;;;;;;;26.13;52.72;101467.06;5052260;28;20021;-82
2022/08/25 08:32:24;;;;;;;2.65;2.30;;;;;;;26.24;51.13;101472.47;5053418;28;20032;-82
2022/08/25 08:34:49;;;;;;;2.47;1.93;;;;;;;26.33;52.33;101463.84;5052539;28;20389;-83
2022/08/25 08:37:15;;;;;;;2.27;2.13;;;;;;;26.44;52.23;101464.88;5047702;28;20070;-83
2022/08/25 08:39:40;;;;;;;2.30;2.20;;;;;;;26.55;51.35;101464.94;5051051;28;20095;-83
2022/08/25 08:42:34;;;;;;;4.55;2.30;;;;;;;26.70;51.47;101465.63;5046254;28;20026;-83
2022/08/25 08:45:09;;;;;;;3.70;2.63;;;;;;;26.83;50.50;101454.91;5031443;28;20080;-83
2022/08/25 08:47:51;;;;;;;4.10;2.45;;;;;;;26.97;50.22;101457.41;5040936;28;20589;-83
2022/08/25 08:50:36;;;;;;;3.00;2.70;;;;;;;27.11;49.72;101459.00;5032407;28;20041;-83
2022/08/25 08:53:31;;;;;;;2.72;2.40;;;;;;;27.27;49.74;101464.00;5031072;28;20025;-83
2022/08/25 08:55:59;;;;;;;2.70;2.45;;;;;;;27.42;47.78;101463.81;5050841;28;20032;-84
2022/08/25 08:58:42;;;;;;;2.22;2.10;;;;;;;27.59;48.77;101462.53;5068788;28;20078;-83
2022/08/25 09:01:15;;;;;;;2.40;2.15;;;;;;;27.71;49.01;101450.91;5059980;28;20028;-83
2022/08/25 09:03:49;;;;;;;2.30;2.15;;;;;;;27.86;48.03;101450.66;5040542;28;20124;-84
2022/08/25 09:06:34;;;;;;;2.13;2.03;;;;;;;27.96;47.98;101454.28;5031088;28;20040;-82
2022/08/25 09:09:02;;;;;;;2.30;2.10;;;;;;;28.09;45.82;101456.00;5031842;28;20080;-83
2022/08/25 09:11:52;;;;;;;2.13;2.00;;;;;;;28.19;45.29;101462.28;5032329;28;20017;-84
2022/08/25 09:14:38;;;;;;;4.65;2.80;;;;;;;28.25;46.37;101459.13;5031456;28;20028;-83
2022/08/25 09:17:22;;;;;;;2.80;2.53;;;;;;;28.39;45.46;101459.81;5031583;28;20108;-83
2022/08/25 09:20:09;;;;;;;3.17;2.83;;;;;;;28.45;44.94;101459.31;5032257;28;20029;-84
2022/08/25 09:22:43;;;;;;;2.88;2.63;;;;;;;28.60;46.25;101460.72;5048477;28;20025;-85
2022/08/25 09:25:34;;;;;;;4.07;2.60;;;;;;;28.75;43.08;101471.97;5049535;28;20116;-84
2022/08/25 09:28:20;;;;;;;3.05;2.60;;;;;;;28.89;41.58;101456.63;5049252;28;20462;-84
2022/08/25 09:31:00;;;;;;;3.00;2.70;;;;;;;28.99;41.65;101457.53;5051693;28;20033;-84
2022/08/25 09:33:27;;;;;;;2.92;2.70;;;;;;;29.09;44.65;101455.78;5049650;28;20488;-84
2022/08/25 09:35:54;;;;;;;2.60;2.40;;;;;;;29.26;45.07;101458.84;5068139;28;20025;-83
2022/08/25 09:38:20;;;;;;;2.47;2.28;;;;;;;29.39;43.50;101458.69;5070086;28;20025;-84
2022/08/25 09:41:03;;;;;;;3.22;2.53;;;;;;;29.42;41.38;101461.94;5071305;28;20037;-85
2022/08/25 09:43:39;;;;;;;2.78;2.58;;;;;;;29.45;39.05;101458.13;5031002;28;20030;-85
2022/08/25 09:46:15;;;;;;;3.55;2.80;;;;;;;29.42;40.42;101453.91;5033707;28;20367;-84
2022/08/25 09:48:40;;;;;;;3.28;2.70;;;;;;;29.50;43.26;101455.91;5034997;28;20393;-85
2022/08/25 09:51:26;;;;;;;;;;;;;;;29.67;43.03;101454.44;5035678;28;20038;-85
2022/08/25 09:54:14;;;;;;;2.60;2.40;;;;;;;29.93;43.76;101443.28;5035428;28;20039;-84
2022/08/25 09:56:55;;;;;;;2.67;2.20;;;;;;;30.11;41.76;101443.50;5033847;28;20036;-84
2022/08/25 09:59:33;;;;;;;2.35;2.17;;;;;;;30.24;38.53;101429.00;5055244;28;20025;-85
2022/08/25 10:02:03;;;;;;;2.50;2.30;;;;;;;30.31;40.88;101428.31;5055021;28;20040;-85
2022/08/25 10:04:31;;;;;;;2.60;2.40;;;;;;;30.45;40.85;101420.84;5054580;28;20044;-84
2022/08/25 10:06:59;;;;;;;2.88;2.50;;;;;;;30.58;40.99;101424.13;5055702;28;20115;-84
2022/08/25 10:09:33;;;;;;;2.67;2.47;;;;;;;30.74;40.66;101425.38;5054032;28;20021;-84
2022/08/25 10:12:01;;;;;;;4.00;2.80;;;;;;;30.86;38.78;101418.06;5055220;28;20025;-83
2022/08/25 10:14:29;;;;;;;5.07;2.80;;;;;;;30.92;37.79;101409.44;5055276;28;20021;-84
2022/08/25 10:17:11;;;;;;;4.00;2.90;;;;;;;30.98;37.02;101408.88;5053924;28;20024;-83
2022/08/25 10:19:37;;;;;;;3.95;2.72;;;;;;;31.07;37.29;101401.81;5054980;28;20025;-84
2022/08/25 10:22:20;;;;;;;3.92;2.72;;;;;;;31.25;35.64;101405.44;5054320;28;20362;-85
2022/08/25 10:24:45;;;;;;;5.30;3.00;;;;;;;31.29;35.85;101402.47;5055506;28;20039;-84
2022/08/25 10:27:28;;;;;;;3.90;2.60;;;;;;;31.38;34.67;101402.41;5053825;28;20037;-83
2022/08/25 10:30:04;;;;;;;3.05;2.80;;;;;;;31.51;34.32;101399.44;5053961;28;20037;-81
2022/08/25 10:32:48;;;;;;;5.68;3.00;;;;;;;31.57;34.02;101395.31;5053924;28;20449;-84
2022/08/25 10:35:18;;;;;;;3.80;3.00;;;;;;;31.56;33.23;101381.03;5054328;28;20018;-84
2022/08/25 10:38:09;;;;;;;2.95;2.63;;;;;;;31.65;34.97;101384.66;5053921;28;20025;-83
2022/08/25 10:40:45;;;;;;;4.75;2.95;;;;;;;31.61;34.26;101382.44;5054618;28;20029;-83
2022/08/25 10:43:32;;;;;;;4.45;2.80;;;;;;;31.67;33.17;101373.78;5053332;28;20025;-84
2022/08/25 10:46:11;;;;;;;3.65;2.75;;;;;;;31.68;32.94;101372.78;5053526;28;20512;-84
2022/08/25 10:48:57;;;;;;;2.60;2.40;;;;;;;31.66;34.25;101377.44;5054413;28;20024;-84
2022/08/25 10:51:35;;;;;;;2.95;2.55;;;;;;;31.58;34.58;101371.00;5061182;28;20111;-84
2022/08/25 10:54:18;;;;;;;2.50;2.30;;;;;;;31.56;34.22;101366.78;5073786;28;20343;-84
2022/08/25 10:56:55;;;;;;;2.53;2.30;;;;;;;31.48;35.02;101369.34;5074083;28;20017;-84
2022/08/25 10:59:51;;;;;;;2.97;2.50;;;;;;;31.35;34.95;101357.16;5073820;28;20028;-84
2022/08/25 11:02:56;;;;;;;3.58;2.65;;;;;;;31.28;32.36;101356.03;5074461;28;20393;-85
2022/08/25 11:05:35;;;;;;;3.42;2.83;;;;;;;31.29;33.44;101352.38;5074274;28;20048;-84
2022/08/25 11:08:15;;;;;;;2.80;2.60;;;;;;;31.40;35.35;101348.66;5073957;28;20029;-84
2022/08/25 11:10:48;;;;;;;2.70;2.50;;;;;;;31.61;36.13;101344.88;5074209;28;20017;-84
2022/08/25 11:13:25;;;;;;;2.75;2.40;;;;;;;31.77;35.58;101350.44;5073194;28;20032;-84
2022/08/25 11:16:15;;;;;;;3.13;2.33;;;;;;;31.89;35.65;101351.91;5071925;28;20400;-85
2022/08/25 11:18:57;;;;;;;2.40;2.20;;;;;;;32.03;36.33;101353.22;5064171;28;20067;-84
2022/08/25 11:21:34;;;;;;;3.50;2.38;;;;;;;32.07;34.49;101348.41;5033180;28;20040;-84
2022/08/25 11:24:26;;;;;;;5.63;3.10;;;;;;;31.98;32.35;101339.44;5033605;28;20032;-85
2022/08/25 11:26:55;;;;;;;4.13;3.10;;;;;;;32.00;34.40;101326.72;5032910;28;20099;-83
2022/08/25 11:29:23;;;;;;;4.22;3.00;;;;;;;32.23;34.37;101328.94;5034014;28;20029;-85
2022/08/25 11:31:52;;;;;;;4.53;2.90;;;;;;;32.42;33.73;101327.94;5033170;28;20033;-84
2022/08/25 11:34:17;;;;;;;5.03;3.10;;;;;;;32.54;33.96;101333.06;5032980;28;20095;-84
2022/08/25 11:37:12;;;;;;;3.35;2.80;;;;;;;32.68;31.90;101327.09;5033663;28;20477;-84
2022/08/25 11:40:01;;;;;;;4.75;2.97;;;;;;;32.73;32.67;101326.63;5023287;28;20040;-84